createdAt,value
2022-09-03T00:01:59.062Z,18.54
2022-09-03T00:04:31.430Z,18.48
2022-09-03T00:07:06.456Z,18.48
2022-09-03T00:09:47.690Z,18.38
2022-09-03T00:12:40.326Z,18.36
2022-09-03T00:15:10.085Z,18.43
2022-09-03T00:18:08.334Z,18.43
2022-09-03T00:20:42.779Z,18.26
2022-09-03T00:23:16.142Z,18.29
2022-09-03T00:25:49.446Z,18.23
2022-09-03T00:28:30.396Z,18.24
2022-09-03T00:31:17.941Z,18.17
2022-09-03T00:33:51.948Z,18.10
2022-09-03T00:36:23.886Z,18.17
2022-09-03T00:38:50.746Z,18.17
2022-09-03T00:41:40.274Z,18.08
2022-09-03T00:44:37.777Z,18.06
2022-09-03T00:47:25.146Z,18.06
2022-09-03T00:50:07.218Z,17.99
2022-09-03T00:53:32.027Z,18.00
2022-09-03T00:56:14.047Z,17.96
2022-09-03T00:58:55.091Z,17.85
2022-09-03T01:01:36.306Z,17.85
2022-09-03T01:04:31.012Z,17.81
2022-09-03T01:07:16.858Z,17.78
2022-09-03T01:09:58.151Z,17.65
2022-09-03T01:12:33.133Z,17.62
2022-09-03T01:15:31.256Z,17.72
2022-09-03T01:18:29.052Z,17.71
2022-09-03T01:21:52.235Z,17.72
2022-09-03T01:25:04.829Z,17.61
2022-09-03T01:28:10.299Z,17.57
2022-09-03T01:30:49.325Z,17.59
2022-09-03T01:33:23.964Z,17.50
2022-09-03T01:36:07.946Z,17.44
2022-09-03T01:38:47.915Z,17.37
2022-09-03T01:42:00.242Z,17.41
2022-09-03T01:44:48.690Z,17.40
2022-09-03T01:47:51.739Z,17.42
2022-09-03T01:50:29.474Z,17.41
2022-09-03T01:53:03.976Z,17.40
2022-09-03T01:55:30.445Z,17.42
2022-09-03T01:58:20.190Z,17.40
2022-09-03T02:00:52.191Z,17.41
2022-09-03T02:03:19.350Z,17.37
2022-09-03T02:05:47.864Z,17.40
2022-09-03T02:08:14.421Z,17.44
2022-09-03T02:10:45.750Z,17.41
2022-09-03T02:13:35.274Z,17.35
2022-09-03T02:16:11.247Z,17.30
2022-09-03T02:18:43.175Z,17.26
2022-09-03T02:21:10.889Z,17.26
2022-09-03T02:23:39.338Z,17.23
2022-09-03T02:26:08.610Z,17.18
2022-09-03T02:28:35.514Z,17.20
2022-09-03T02:31:02.866Z,17.20
2022-09-03T02:33:38.706Z,17.20
2022-09-03T02:36:07.857Z,17.21
2022-09-03T02:38:35.316Z,17.18
2022-09-03T02:41:01.987Z,17.20
2022-09-03T02:43:35.278Z,17.18
2022-09-03T02:46:05.060Z,17.17
2022-09-03T02:48:31.651Z,17.17
2022-09-03T02:50:58.145Z,17.11
2022-09-03T02:53:25.225Z,17.11
2022-09-03T02:55:51.785Z,17.14
2022-09-03T02:58:18.330Z,17.23
2022-09-03T03:00:45.064Z,17.15
2022-09-03T03:03:11.584Z,17.08
2022-09-03T03:05:50.676Z,17.14
2022-09-03T03:08:21.259Z,17.11
2022-09-03T03:10:49.383Z,17.06
2022-09-03T03:13:16.740Z,17.03
2022-09-03T03:15:44.438Z,17.06
2022-09-03T03:18:14.428Z,17.10
2022-09-03T03:20:42.182Z,17.08
2022-09-03T03:23:08.664Z,17.06
2022-09-03T03:25:37.041Z,17.07
2022-09-03T03:28:05.294Z,17.11
2022-09-03T03:30:32.758Z,17.10
2022-09-03T03:32:59.568Z,17.07
2022-09-03T03:35:29.160Z,17.04
2022-09-03T03:37:58.276Z,17.06
2022-09-03T03:40:25.158Z,17.11
2022-09-03T03:42:51.683Z,17.13
2022-09-03T03:45:18.375Z,17.14
2022-09-03T03:47:45.035Z,17.18
2022-09-03T03:50:11.635Z,17.14
2022-09-03T03:52:38.433Z,17.14
2022-09-03T03:55:05.561Z,17.13
2022-09-03T03:57:32.482Z,17.11
2022-09-03T03:59:59.039Z,17.06
2022-09-03T04:02:25.867Z,17.08
2022-09-03T04:04:52.575Z,16.97
2022-09-03T04:07:19.317Z,17.02
2022-09-03T04:09:45.937Z,17.00
2022-09-03T04:12:12.632Z,16.99
2022-09-03T04:14:39.653Z,16.99
2022-09-03T04:17:06.190Z,17.02
2022-09-03T04:19:32.768Z,16.97
2022-09-03T04:22:05.499Z,16.96
2022-09-03T04:24:32.492Z,16.89
2022-09-03T04:26:59.083Z,16.87
2022-09-03T04:29:25.845Z,16.89
2022-09-03T04:32:10.885Z,16.89
2022-09-03T04:34:37.428Z,16.92
2022-09-03T04:37:03.963Z,16.90
2022-09-03T04:39:30.523Z,16.83
2022-09-03T04:41:59.711Z,16.84
2022-09-03T04:44:26.586Z,16.82
2022-09-03T04:46:53.425Z,16.84
2022-09-03T04:49:20.619Z,16.82
2022-09-03T04:51:47.251Z,16.90
2022-09-03T04:54:14.206Z,16.84
2022-09-03T04:56:40.755Z,16.84
2022-09-03T04:59:13.765Z,16.86
2022-09-03T05:01:41.188Z,16.83
2022-09-03T05:04:08.717Z,16.84
2022-09-03T05:06:37.267Z,16.90
2022-09-03T05:09:05.197Z,16.92
2022-09-03T05:11:31.972Z,16.90
2022-09-03T05:13:59.645Z,17.00
2022-09-03T05:16:28.449Z,17.00
2022-09-03T05:18:57.451Z,17.00
2022-09-03T05:21:24.654Z,17.04
2022-09-03T05:23:52.414Z,17.15
2022-09-03T05:26:22.309Z,17.14
2022-09-03T05:28:52.711Z,17.24
2022-09-03T05:31:20.844Z,17.37
2022-09-03T05:33:52.922Z,17.42
2022-09-03T05:36:23.111Z,17.51
2022-09-03T05:38:50.454Z,17.54
2022-09-03T05:41:18.958Z,17.61
2022-09-03T05:43:52.003Z,17.63
2022-09-03T05:46:18.765Z,17.71
2022-09-03T05:48:45.613Z,17.68
2022-09-03T05:51:16.468Z,17.75
2022-09-03T05:53:45.929Z,17.82
2022-09-03T05:56:17.926Z,17.82
2022-09-03T05:58:47.144Z,17.86
2022-09-03T06:01:28.973Z,17.98
2022-09-03T06:04:00.857Z,18.05
2022-09-03T06:06:29.231Z,18.09
2022-09-03T06:08:58.304Z,18.14
2022-09-03T06:11:29.585Z,18.29
2022-09-03T06:13:57.738Z,18.23
2022-09-03T06:16:28.995Z,18.24
2022-09-03T06:18:58.948Z,18.29
2022-09-03T06:21:25.599Z,18.31
2022-09-03T06:23:54.083Z,18.38
2022-09-03T06:26:21.090Z,18.54
2022-09-03T06:28:48.606Z,18.65
2022-09-03T06:33:41.864Z,18.61
2022-09-03T06:36:11.772Z,18.64
2022-09-03T06:38:38.421Z,18.65
2022-09-03T06:41:15.791Z,18.74
2022-09-03T06:43:42.912Z,18.77
2022-09-03T06:46:15.049Z,18.77
2022-09-03T06:48:42.436Z,18.72
2022-09-03T06:51:15.344Z,18.95
2022-09-03T06:53:44.767Z,18.94
2022-09-03T06:56:13.983Z,18.98
2022-09-03T06:58:49.665Z,19.09
2022-09-03T07:01:19.460Z,19.10
2022-09-03T07:03:47.960Z,19.08
2022-09-03T07:06:19.995Z,19.13
2022-09-03T07:08:46.787Z,19.23
2022-09-03T07:11:16.517Z,19.46
2022-09-03T07:13:45.632Z,19.54
2022-09-03T07:16:17.706Z,19.50
2022-09-03T07:18:45.581Z,19.57
2022-09-03T07:21:16.336Z,19.81
2022-09-03T07:23:43.895Z,19.78
2022-09-03T07:26:16.712Z,19.74
2022-09-03T07:28:46.088Z,19.90
2022-09-03T07:31:34.462Z,20.12
2022-09-03T07:34:09.923Z,20.70
2022-09-03T07:36:48.998Z,21.14
2022-09-03T07:39:16.803Z,21.71
2022-09-03T07:41:45.762Z,21.89
2022-09-03T07:44:20.019Z,21.51
2022-09-03T07:46:48.185Z,21.45
2022-09-03T07:49:14.923Z,21.28
2022-09-03T07:51:41.747Z,20.93
2022-09-03T07:54:11.096Z,20.80
2022-09-03T07:56:40.098Z,20.40
2022-09-03T07:59:07.689Z,20.55
2022-09-03T08:01:35.060Z,20.66
2022-09-03T08:04:03.000Z,20.83
2022-09-03T08:06:31.214Z,20.57
2022-09-03T08:09:04.996Z,20.76
2022-09-03T08:11:35.192Z,20.55
2022-09-03T08:14:06.878Z,20.48
2022-09-03T08:16:53.910Z,20.87
2022-09-03T08:19:20.657Z,20.94
2022-09-03T08:21:47.253Z,21.13
2022-09-03T08:24:16.739Z,21.85
2022-09-03T08:26:49.105Z,22.71
2022-09-03T08:29:18.946Z,22.88
2022-09-03T08:31:45.650Z,22.80
2022-09-03T08:34:14.687Z,22.36
2022-09-03T08:36:41.586Z,22.85
2022-09-03T08:39:10.886Z,22.41
2022-09-03T08:42:06.236Z,21.78
2022-09-03T08:44:57.066Z,21.56
2022-09-03T08:47:32.927Z,21.35
2022-09-03T08:50:13.269Z,21.28
2022-09-03T08:52:54.320Z,21.17
2022-09-03T08:55:26.308Z,21.21
2022-09-03T08:58:05.003Z,20.91
2022-09-03T09:01:01.601Z,20.72
2022-09-03T09:03:49.369Z,20.80
2022-09-03T09:06:50.357Z,20.75
2022-09-03T09:09:44.320Z,20.57
2022-09-03T09:12:19.990Z,20.77
2022-09-03T09:15:08.641Z,20.77
2022-09-03T09:17:54.097Z,20.67
2022-09-03T09:20:20.600Z,20.66
2022-09-03T09:22:56.646Z,20.70
2022-09-03T09:25:26.530Z,20.55
2022-09-03T09:28:23.721Z,20.59
2022-09-03T09:30:54.373Z,20.65
2022-09-03T09:33:21.836Z,20.69
2022-09-03T09:35:48.765Z,20.53
2022-09-03T09:38:16.372Z,20.67
2022-09-03T09:40:45.617Z,20.80
2022-09-03T09:43:19.273Z,20.21
2022-09-03T09:45:51.157Z,20.19
2022-09-03T09:48:23.389Z,20.04
2022-09-03T09:50:50.090Z,20.24
2022-09-03T09:53:21.778Z,19.91
2022-09-03T09:55:56.017Z,19.68
2022-09-03T09:58:26.834Z,19.70
2022-09-03T10:01:13.288Z,19.78
2022-09-03T10:03:55.475Z,18.91
2022-09-03T10:06:46.383Z,18.51
2022-09-03T10:09:16.057Z,18.58
2022-09-03T10:11:46.534Z,18.84
2022-09-03T10:14:35.426Z,18.95
2022-09-03T10:17:28.376Z,19.12
2022-09-03T10:20:44.987Z,19.49
2022-09-03T10:23:23.182Z,20.09
2022-09-03T10:26:10.146Z,20.57
2022-09-03T10:28:42.738Z,20.67
2022-09-03T10:31:47.108Z,20.75
2022-09-03T10:34:23.842Z,20.93
2022-09-03T10:37:02.427Z,20.90
2022-09-03T10:39:43.122Z,21.01
2022-09-03T10:42:35.836Z,21.32
2022-09-03T10:45:05.314Z,21.32
2022-09-03T10:48:04.586Z,22.44
2022-09-03T10:50:35.301Z,23.35
2022-09-03T10:53:39.496Z,22.94
2022-09-03T10:56:10.119Z,22.51
2022-09-03T10:58:48.944Z,22.71
2022-09-03T11:01:45.367Z,23.87
2022-09-03T11:04:27.038Z,23.49
2022-09-03T11:07:05.195Z,24.21
2022-09-03T11:09:46.157Z,24.85
2022-09-03T11:12:28.257Z,25.30
2022-09-03T11:15:13.945Z,25.63
2022-09-03T11:17:48.069Z,26.04
2022-09-03T11:20:18.575Z,26.32
2022-09-03T11:22:48.094Z,26.23
2022-09-03T11:25:17.496Z,25.58
2022-09-03T11:27:56.977Z,25.10
2022-09-03T11:30:53.619Z,26.28
2022-09-03T11:33:23.581Z,26.49
2022-09-03T11:35:57.599Z,27.73
2022-09-03T11:38:29.084Z,27.01
2022-09-03T11:41:00.394Z,26.88
2022-09-03T11:43:30.166Z,26.79
2022-09-03T11:46:28.066Z,25.60
2022-09-03T11:49:10.710Z,25.82
2022-09-03T11:51:39.659Z,25.88
2022-09-03T11:54:23.849Z,25.58
2022-09-03T11:56:50.798Z,26.31
2022-09-03T11:59:20.932Z,26.36
2022-09-03T12:01:53.409Z,26.83
2022-09-03T12:04:26.022Z,27.97
2022-09-03T12:07:20.892Z,28.36
2022-09-03T12:09:53.376Z,27.66
2022-09-03T12:12:57.470Z,28.33
2022-09-03T12:15:41.244Z,27.51
2022-09-03T12:18:22.591Z,28.13
2022-09-03T12:21:03.082Z,28.68
2022-09-03T12:23:35.212Z,28.98
2022-09-03T12:26:08.849Z,29.19
2022-09-03T12:28:38.514Z,28.28
2022-09-03T12:31:22.693Z,29.02
2022-09-03T12:34:04.069Z,28.24
2022-09-03T12:36:42.701Z,28.82
2022-09-03T12:39:13.030Z,28.16
2022-09-03T12:41:59.477Z,28.41
2022-09-03T12:44:46.987Z,28.89
2022-09-03T12:47:35.593Z,29.00
2022-09-03T12:50:11.937Z,28.41
2022-09-03T12:52:53.329Z,28.65
2022-09-03T12:58:32.160Z,29.70
2022-09-03T13:01:14.706Z,29.06
2022-09-03T13:03:50.765Z,28.54
2022-09-03T13:06:21.888Z,27.63
2022-09-03T13:09:01.062Z,28.28
2022-09-03T13:11:29.211Z,28.61
2022-09-03T13:14:05.536Z,28.58
2022-09-03T13:16:38.333Z,28.28
2022-09-03T13:19:17.800Z,28.38
2022-09-03T13:22:02.418Z,28.30
2022-09-03T13:24:40.066Z,28.26
2022-09-03T13:27:20.712Z,27.57
2022-09-03T13:30:05.590Z,27.59
2022-09-03T13:32:57.527Z,27.02
2022-09-03T13:35:48.529Z,27.45
2022-09-03T13:38:24.798Z,27.93
2022-09-03T13:41:19.901Z,28.88
2022-09-03T13:43:46.421Z,29.40
2022-09-03T13:46:29.771Z,29.27
2022-09-03T13:49:39.938Z,29.29
2022-09-03T13:52:20.407Z,30.20
2022-09-03T13:54:53.178Z,30.20
2022-09-03T13:57:45.005Z,29.36
2022-09-03T14:00:14.810Z,30.49
2022-09-03T14:03:03.766Z,28.56
2022-09-03T14:05:43.692Z,30.45
2022-09-03T14:08:54.313Z,31.85
2022-09-03T14:11:31.063Z,31.24
2022-09-03T14:14:06.595Z,31.30
2022-09-03T14:16:57.962Z,31.40
2022-09-03T14:19:43.596Z,30.66
2022-09-03T14:22:22.126Z,29.11
2022-09-03T14:25:05.294Z,27.52
2022-09-03T14:27:32.774Z,28.81
2022-09-03T14:30:04.646Z,28.78
2022-09-03T14:32:41.435Z,29.40
2022-09-03T14:35:19.987Z,29.88
2022-09-03T14:38:25.873Z,30.18
2022-09-03T14:40:58.065Z,30.32
2022-09-03T14:43:36.165Z,30.05
2022-09-03T14:46:42.513Z,30.35
2022-09-03T14:49:43.287Z,29.46
2022-09-03T14:52:52.543Z,30.53
2022-09-03T14:55:39.583Z,29.97
2022-09-03T14:58:43.748Z,29.66
2022-09-03T15:01:26.018Z,30.96
2022-09-03T15:04:19.308Z,30.87
2022-09-03T15:07:18.560Z,30.78
2022-09-03T15:09:54.597Z,29.98
2022-09-03T15:12:24.751Z,29.36
2022-09-03T15:14:57.733Z,29.40
2022-09-03T15:17:50.710Z,29.54
2022-09-03T15:20:48.724Z,30.25
2022-09-03T15:23:24.531Z,30.65
2022-09-03T15:26:10.145Z,29.97
2022-09-03T15:28:54.876Z,30.42
2022-09-03T15:31:38.918Z,29.93
2022-09-03T15:34:27.619Z,29.88
2022-09-03T15:36:58.082Z,29.16
2022-09-03T15:39:32.103Z,29.37
2022-09-03T15:42:01.807Z,29.00
2022-09-03T15:44:46.502Z,30.12
2022-09-03T15:47:29.850Z,29.97
2022-09-03T15:50:33.313Z,30.14
2022-09-03T15:53:06.013Z,30.89
2022-09-03T15:55:42.447Z,30.28
2022-09-03T15:58:21.064Z,29.47
2022-09-03T16:01:21.793Z,29.20
2022-09-03T16:04:57.049Z,29.02
2022-09-03T16:07:30.612Z,28.34
2022-09-03T16:10:30.785Z,28.36
2022-09-03T16:13:35.482Z,28.60
2022-09-03T16:16:26.680Z,28.19
2022-09-03T16:19:17.170Z,27.79
2022-09-03T16:21:54.749Z,27.59
2022-09-03T16:24:46.050Z,26.95
2022-09-03T16:27:23.992Z,26.29
2022-09-03T16:30:10.040Z,25.88
2022-09-03T16:32:48.665Z,25.88
2022-09-03T16:35:32.969Z,26.06
2022-09-03T16:38:25.465Z,26.08
2022-09-03T16:40:59.942Z,25.91
2022-09-03T16:43:41.192Z,25.95
2022-09-03T16:46:41.008Z,25.99
2022-09-03T16:49:38.566Z,25.78
2022-09-03T16:52:11.923Z,25.84
2022-09-03T16:55:04.960Z,25.47
2022-09-03T16:58:00.187Z,25.43
2022-09-03T17:00:42.303Z,25.07
2022-09-03T17:03:36.583Z,24.79
2022-09-03T17:06:29.863Z,24.35
2022-09-03T17:09:21.226Z,24.51
2022-09-03T17:12:17.352Z,24.25
2022-09-03T17:15:00.437Z,24.22
2022-09-03T17:17:41.191Z,24.01
2022-09-03T17:20:26.563Z,23.93
2022-09-03T17:23:07.122Z,23.93
2022-09-03T17:25:51.945Z,23.91
2022-09-03T17:29:02.693Z,23.45
2022-09-03T17:31:51.045Z,23.26
2022-09-03T17:34:42.602Z,23.08
2022-09-03T17:37:45.292Z,22.72
2022-09-03T17:40:41.856Z,22.63
2022-09-03T17:43:33.571Z,22.37
2022-09-03T17:46:19.320Z,22.03
2022-09-03T17:48:49.806Z,21.62
2022-09-03T17:51:37.045Z,21.42
2022-09-03T17:58:49.628Z,20.96
2022-09-03T18:01:28.828Z,20.79
2022-09-03T18:04:05.141Z,20.79
2022-09-03T18:06:40.881Z,20.57
2022-09-03T18:09:26.569Z,20.33
2022-09-03T18:12:13.077Z,20.21
2022-09-03T18:15:10.813Z,20.21
2022-09-03T18:17:42.999Z,20.05
2022-09-03T18:20:32.105Z,20.18
2022-09-03T18:23:27.454Z,20.02
2022-09-03T18:26:17.127Z,20.01
2022-09-03T18:29:29.051Z,20.04
2022-09-03T18:32:14.220Z,19.64
2022-09-03T18:35:00.086Z,19.66
2022-09-03T18:37:46.206Z,19.60
2022-09-03T18:40:44.308Z,19.49
2022-09-03T18:43:46.828Z,19.66
2022-09-03T18:47:54.325Z,19.63
2022-09-03T18:49:48.656Z,19.75
2022-09-03T18:52:53.696Z,19.63
2022-09-03T18:55:55.381Z,19.70
2022-09-03T18:58:43.699Z,19.70
2022-09-03T19:01:57.532Z,19.53
2022-09-03T19:05:05.947Z,19.43
2022-09-03T19:08:43.323Z,19.51
2022-09-03T19:11:47.266Z,19.40
2022-09-03T19:14:58.997Z,19.54
2022-09-03T19:17:56.504Z,19.30
2022-09-03T19:20:50.677Z,19.22
2022-09-03T19:23:35.968Z,19.13
2022-09-03T19:26:35.172Z,19.02
2022-09-03T19:29:30.955Z,19.06
2022-09-03T19:32:27.262Z,18.88
2022-09-03T19:35:36.442Z,18.92
2022-09-03T19:38:42.327Z,18.89
2022-09-03T19:41:44.734Z,18.80
2022-09-03T19:44:43.284Z,18.70
2022-09-03T19:47:36.450Z,18.70
2022-09-03T19:50:31.588Z,18.63
2022-09-03T19:53:23.482Z,18.51
2022-09-03T19:56:14.310Z,18.54
2022-09-03T19:59:04.377Z,18.58
2022-09-03T20:01:54.764Z,18.67
2022-09-03T20:04:50.757Z,18.72
2022-09-03T20:07:36.293Z,18.60
2022-09-03T20:10:24.143Z,18.74
2022-09-03T20:12:59.787Z,18.80
2022-09-03T20:15:49.404Z,18.78
2022-09-03T20:18:30.585Z,18.55
2022-09-03T20:20:59.966Z,18.61
2022-09-03T20:23:35.276Z,18.77
2022-09-03T20:26:50.187Z,18.58
2022-09-03T20:29:16.667Z,18.54
2022-09-03T20:32:16.642Z,18.65
2022-09-03T20:34:58.070Z,18.57
2022-09-03T20:37:43.716Z,18.64
2022-09-03T20:40:29.232Z,18.60
2022-09-03T20:43:08.430Z,18.50
2022-09-03T20:45:54.887Z,18.44
2022-09-03T20:48:36.815Z,18.52
2022-09-03T20:51:12.030Z,18.47
2022-09-03T20:53:55.036Z,18.47
2022-09-03T20:56:30.845Z,18.33
2022-09-03T20:59:13.633Z,18.38
2022-09-03T21:02:12.935Z,18.26
2022-09-03T21:04:57.952Z,18.26
2022-09-03T21:07:43.338Z,18.16
2022-09-03T21:10:18.932Z,18.12
2022-09-03T21:12:53.600Z,18.16
2022-09-03T21:15:45.541Z,18.03
2022-09-03T21:18:14.809Z,17.92
2022-09-03T21:21:02.090Z,17.95
2022-09-03T21:23:35.334Z,17.87
2022-09-03T21:26:14.891Z,17.92
2022-09-03T21:28:45.817Z,18.00
2022-09-03T21:31:24.336Z,17.89
2022-09-03T21:33:58.519Z,17.89
2022-09-03T21:36:34.966Z,17.91
2022-09-03T21:39:21.582Z,17.87
2022-09-03T21:41:58.062Z,17.91
2022-09-03T21:44:39.750Z,17.82
2022-09-03T21:47:14.910Z,17.83
2022-09-03T21:50:18.532Z,17.79
2022-09-03T21:52:56.330Z,17.75
2022-09-03T21:55:29.623Z,17.83
2022-09-03T21:58:25.348Z,17.79
2022-09-03T22:00:56.820Z,17.68
2022-09-03T22:03:23.510Z,17.69
2022-09-03T22:06:06.248Z,17.66
2022-09-03T22:08:55.911Z,17.62
2022-09-03T22:11:33.297Z,17.63
2022-09-03T22:14:07.339Z,17.57
2022-09-03T22:16:45.318Z,17.58
2022-09-03T22:19:11.979Z,17.51
2022-09-03T22:21:44.504Z,17.63
2022-09-03T22:24:29.878Z,17.65
2022-09-03T22:27:18.476Z,17.61
2022-09-03T22:30:05.937Z,17.57
2022-09-03T22:32:36.327Z,17.47
2022-09-03T22:35:30.155Z,17.58
2022-09-03T22:38:30.021Z,17.47
2022-09-03T22:41:26.751Z,17.59
2022-09-03T22:44:24.894Z,17.50
2022-09-03T22:47:14.353Z,17.47
2022-09-03T22:50:18.315Z,17.57
2022-09-03T22:52:51.892Z,17.55
2022-09-03T22:55:25.665Z,17.51
2022-09-03T22:57:58.991Z,17.61
2022-09-03T23:00:29.811Z,17.47
2022-09-03T23:03:04.972Z,17.57
2022-09-03T23:05:35.346Z,17.32
2022-09-03T23:08:06.227Z,17.38
2022-09-03T23:11:11.637Z,17.32
2022-09-03T23:13:42.400Z,17.30
2022-09-03T23:16:21.878Z,17.26
2022-09-03T23:18:51.433Z,17.27
2022-09-03T23:21:29.006Z,17.32
2022-09-03T23:23:58.402Z,17.28
2022-09-03T23:26:51.521Z,17.28
2022-09-03T23:29:32.134Z,17.35
2022-09-03T23:31:59.445Z,17.32
2022-09-03T23:34:27.097Z,17.28
2022-09-03T23:37:34.936Z,17.28
2022-09-03T23:40:16.367Z,17.23
2022-09-03T23:43:01.651Z,17.23
2022-09-03T23:46:05.378Z,17.15
2022-09-03T23:49:20.285Z,17.08
2022-09-03T23:52:13.916Z,16.89
2022-09-03T23:54:54.683Z,16.86
